Time;durP1;ratioP1;P1;durP2;ratioP2;P2;SDS_P1;SDS_P2;PMS_P1;PMS_P2;Temp;Humidity;BMP_temperature;BMP_pressure;BME280_temperature;BME280_humidity;BME280_pressure;Samples;Min_cycle;Max_cycle;Signal;HPM_P1;HPM_P2
2023/07/29 00:00:55;;;;;;;2.80;1.50;;;;;;;19.44;100.00;98297.94;4486351;31;20433;-66
2023/07/29 00:03:23;;;;;;;3.37;1.70;;;;;;;19.45;100.00;98295.06;4486080;31;20116;-66
2023/07/29 00:05:51;;;;;;;2.70;1.70;;;;;;;19.48;100.00;98296.50;4486244;31;20089;-66
2023/07/29 00:08:19;;;;;;;3.53;1.70;;;;;;;19.46;100.00;98293.25;4485951;31;20097;-66
2023/07/29 00:10:47;;;;;;;2.97;1.80;;;;;;;19.43;100.00;98289.16;4486213;31;20096;-66
2023/07/29 00:13:14;;;;;;;2.90;1.92;;;;;;;19.42;100.00;98292.03;4486021;31;20118;-66
2023/07/29 00:15:42;;;;;;;2.70;1.67;;;;;;;19.44;100.00;98288.16;4486299;32;20456;-66
2023/07/29 00:18:10;;;;;;;2.22;1.60;;;;;;;19.31;100.00;98288.97;4486066;32;20179;-66
2023/07/29 00:20:37;;;;;;;2.72;1.60;;;;;;;19.15;100.00;98284.06;4485755;32;20096;-66
2023/07/29 00:23:05;;;;;;;3.97;1.50;;;;;;;19.14;100.00;98280.59;4485962;32;20092;-66
2023/07/29 00:25:33;;;;;;;2.87;1.67;;;;;;;19.22;100.00;98292.03;4486033;32;20119;-66
2023/07/29 00:28:00;;;;;;;5.57;1.62;;;;;;;19.23;100.00;98283.03;4486038;32;20092;-66
2023/07/29 00:30:28;;;;;;;3.78;1.92;;;;;;;19.22;100.00;98286.72;4486054;31;20466;-66
2023/07/29 00:32:56;;;;;;;2.87;1.85;;;;;;;19.19;100.00;98285.28;4485963;32;20119;-66
2023/07/29 00:35:23;;;;;;;2.50;1.60;;;;;;;19.13;100.00;98289.56;4485868;32;20096;-66
2023/07/29 00:37:52;;;;;;;4.20;1.73;;;;;;;19.03;100.00;98288.34;4485956;31;20427;-66
2023/07/29 00:40:22;;;;;;;2.42;1.73;;;;;;;18.96;100.00;98288.34;4485859;32;20118;-66
2023/07/29 00:42:50;;;;;;;3.15;1.73;;;;;;;18.96;100.00;98281.19;4485829;31;20096;-66
2023/07/29 00:45:18;;;;;;;4.43;1.80;;;;;;;18.95;100.00;98284.06;4485592;31;20104;-66
2023/07/29 00:47:47;;;;;;;3.12;1.77;;;;;;;18.89;100.00;98291.00;4485118;31;20599;-66
2023/07/29 00:50:17;;;;;;;2.10;1.50;;;;;;;18.84;100.00;98280.16;4484634;32;20092;-66
2023/07/29 00:52:45;;;;;;;2.92;1.70;;;;;;;18.87;100.00;98278.97;4484382;32;20091;-66
2023/07/29 00:55:13;;;;;;;2.70;2.05;;;;;;;18.85;100.00;98283.59;4484666;32;20097;-66
2023/07/29 00:57:42;;;;;;;3.05;1.85;;;;;;;18.83;100.00;98278.50;4485707;31;20096;-66
2023/07/29 01:00:10;;;;;;;2.62;1.73;;;;;;;18.77;100.00;98276.66;4484823;32;20118;-66
2023/07/29 01:02:39;;;;;;;2.65;1.62;;;;;;;18.74;100.00;98267.28;4485990;31;20397;-66
2023/07/29 01:05:07;;;;;;;3.20;1.87;;;;;;;18.71;100.00;98274.81;4485968;31;20105;-66
2023/07/29 01:07:52;;;;;;;5.40;1.50;;;;;;;18.68;100.00;98269.91;4484315;32;20164;-66
2023/07/29 01:10:37;;;;;;;2.85;1.77;;;;;;;18.63;100.00;98276.63;4484523;32;20441;-66
2023/07/29 01:13:20;;;;;;;4.62;1.50;;;;;;;18.56;100.00;98265.22;4485971;31;20106;-66
2023/07/29 01:16:11;;;;;;;2.70;1.80;;;;;;;18.47;100.00;98271.72;4469943;32;20398;-66
2023/07/29 01:18:39;;;;;;;3.67;1.90;;;;;;;18.50;100.00;98271.31;4469930;32;20119;-66
2023/07/29 01:21:09;;;;;;;2.60;1.65;;;;;;;18.54;100.00;98275.19;4468769;32;20123;-66
2023/07/29 01:23:37;;;;;;;3.70;2.12;;;;;;;18.58;100.00;98276.44;4481457;32;20093;-66
2023/07/29 01:26:05;;;;;;;5.03;1.67;;;;;;;18.54;100.00;98280.50;4469977;32;20096;-66
2023/07/29 01:28:33;;;;;;;3.10;1.92;;;;;;;18.48;100.00;98283.94;4469693;32;20096;-66
2023/07/29 01:31:16;;;;;;;2.15;1.30;;;;;;;18.47;100.00;98269.06;4469875;32;20084;-66
2023/07/29 01:33:50;;;;;;;2.17;1.67;;;;;;;18.44;100.00;98274.78;4468541;32;20076;-66
2023/07/29 01:36:22;;;;;;;2.40;1.85;;;;;;;18.41;100.00;98281.28;4481266;32;20097;-66
2023/07/29 01:38:51;;;;;;;3.12;1.95;;;;;;;18.40;100.00;98278.84;4469746;32;20564;-66
2023/07/29 01:41:21;;;;;;;4.32;1.65;;;;;;;18.18;100.00;98286.94;4468536;32;20593;-66
2023/07/29 01:43:50;;;;;;;3.10;1.87;;;;;;;18.06;100.00;98284.03;4469912;32;20134;-66
2023/07/29 01:46:18;;;;;;;3.37;2.12;;;;;;;18.03;100.00;98283.56;4468529;32;20132;-66
2023/07/29 01:48:48;;;;;;;2.15;1.73;;;;;;;18.09;100.00;98288.09;4469786;32;20109;-66
2023/07/29 01:51:16;;;;;;;4.05;2.28;;;;;;;18.12;100.00;98286.87;4472238;32;20116;-66
2023/07/29 01:53:44;;;;;;;2.50;1.77;;;;;;;18.26;100.00;98280.63;4485366;32;20084;-66
2023/07/29 01:56:12;;;;;;;3.55;1.85;;;;;;;18.27;100.00;98279.59;4485429;32;20172;-66
2023/07/29 01:58:39;;;;;;;3.22;1.70;;;;;;;18.30;100.00;98281.03;4485253;31;20097;-66
2023/07/29 02:01:07;;;;;;;5.57;1.67;;;;;;;18.27;100.00;98279.59;4485593;32;20134;-66
2023/07/29 02:03:35;;;;;;;3.30;1.70;;;;;;;18.26;100.00;98281.44;4485474;32;20123;-66
2023/07/29 02:06:03;;;;;;;2.90;1.60;;;;;;;18.23;100.00;98281.84;4485667;32;20742;-66
2023/07/29 02:08:31;;;;;;;3.53;1.77;;;;;;;18.25;100.00;98273.69;4485346;32;20130;-66
2023/07/29 02:10:59;;;;;;;3.05;1.80;;;;;;;18.24;100.00;98272.88;4485568;32;20097;-66
2023/07/29 02:13:28;;;;;;;5.22;1.90;;;;;;;18.29;100.00;98268.78;4485139;32;20100;-66
2023/07/29 02:15:56;;;;;;;3.65;2.17;;;;;;;18.29;100.00;98271.44;4485067;32;20120;-66
2023/07/29 02:18:23;;;;;;;2.10;1.40;;;;;;;18.32;100.00;98266.56;4485202;32;20096;-66
2023/07/29 02:20:51;;;;;;;2.85;1.85;;;;;;;18.37;100.00;98271.28;4485567;32;20100;-66
2023/07/29 02:23:19;;;;;;;2.37;1.77;;;;;;;18.42;100.00;98271.47;4485211;32;20100;-66
2023/07/29 02:25:46;;;;;;;3.20;1.83;;;;;;;18.43;100.00;98278.44;4485375;32;20489;-66
2023/07/29 02:28:14;;;;;;;3.60;1.90;;;;;;;18.50;100.00;98273.13;4484966;32;20100;-66
2023/07/29 02:30:46;;;;;;;2.85;1.80;;;;;;;18.66;100.00;98271.97;4485161;32;20462;-66
2023/07/29 02:33:13;;;;;;;3.85;1.90;;;;;;;18.74;100.00;98274.41;4485423;31;20092;-66
2023/07/29 02:35:43;;;;;;;3.28;2.00;;;;;;;18.84;100.00;98276.69;4485446;31;20522;-66
2023/07/29 02:38:11;;;;;;;3.45;1.90;;;;;;;18.93;100.00;98278.16;4485096;32;20105;-66
2023/07/29 02:40:39;;;;;;;5.18;1.75;;;;;;;19.02;100.00;98278.78;4485008;32;20114;-66
2023/07/29 02:43:07;;;;;;;3.35;1.92;;;;;;;19.07;100.00;98276.31;4485328;32;20160;-66
2023/07/29 02:45:34;;;;;;;2.80;1.85;;;;;;;19.13;100.00;98278.94;4485194;32;20118;-66
2023/07/29 02:48:02;;;;;;;2.15;1.70;;;;;;;19.23;100.00;98281.22;4485125;31;20153;-66
2023/07/29 02:50:31;;;;;;;3.42;2.03;;;;;;;19.33;100.00;98278.97;4485064;32;20180;-66
2023/07/29 02:52:59;;;;;;;3.35;2.12;;;;;;;19.34;100.00;98282.44;4484871;32;20118;-66
2023/07/29 02:55:26;;;;;;;3.72;1.90;;;;;;;19.37;100.00;98281.22;4484819;32;20112;-66
2023/07/29 02:57:54;;;;;;;3.08;1.75;;;;;;;19.41;100.00;98285.06;4484821;31;20129;-66
2023/07/29 03:00:22;;;;;;;5.12;2.00;;;;;;;19.45;100.00;98286.28;4484666;31;20124;-66
2023/07/29 03:02:50;;;;;;;2.42;1.80;;;;;;;19.46;100.00;98283.44;4484796;32;20092;-66
2023/07/29 03:05:18;;;;;;;2.45;1.70;;;;;;;19.44;100.00;98289.97;4484957;31;20119;-66
2023/07/29 03:07:46;;;;;;;3.72;2.12;;;;;;;19.38;100.00;98290.78;4485058;32;20161;-66
2023/07/29 03:10:14;;;;;;;3.47;1.80;;;;;;;19.41;100.00;98290.38;4484049;32;20106;-66
2023/07/29 03:12:44;;;;;;;4.07;1.90;;;;;;;19.37;100.00;98289.19;4484724;32;20094;-66
2023/07/29 03:15:12;;;;;;;4.70;2.20;;;;;;;19.38;100.00;98296.94;4484461;31;20575;-66
2023/07/29 03:17:40;;;;;;;4.18;1.92;;;;;;;19.39;100.00;98289.78;4484506;31;20100;-66
2023/07/29 03:20:08;;;;;;;3.47;1.98;;;;;;;19.33;100.00;98288.75;4484665;32;20110;-66
2023/07/29 03:22:38;;;;;;;7.50;1.70;;;;;;;19.30;100.00;98284.69;4484600;31;20092;-66
2023/07/29 03:25:07;;;;;;;5.62;2.03;;;;;;;19.26;100.00;98288.78;4484509;32;20085;-66
2023/07/29 03:27:39;;;;;;;2.97;1.95;;;;;;;19.18;100.00;98291.63;4484464;31;20216;-66
2023/07/29 03:30:07;;;;;;;3.33;2.12;;;;;;;19.15;100.00;98292.03;4484690;31;20564;-66
2023/07/29 03:32:44;;;;;;;4.37;1.85;;;;;;;19.12;100.00;98287.97;4484728;31;20095;-66
2023/07/29 03:35:12;;;;;;;3.87;2.00;;;;;;;19.15;100.00;98292.03;4484291;32;20093;-66
2023/07/29 03:37:40;;;;;;;3.30;1.75;;;;;;;19.11;100.00;98286.31;4484386;31;20084;-66
2023/07/29 03:40:11;;;;;;;3.62;1.83;;;;;;;19.12;100.00;98276.50;4484300;31;20139;-66
2023/07/29 03:42:39;;;;;;;5.12;1.98;;;;;;;19.17;100.00;98290.00;4484424;31;20088;-66
2023/07/29 03:45:08;;;;;;;2.10;1.60;;;;;;;19.25;100.00;98292.44;4484134;32;20134;-66
2023/07/29 03:47:35;;;;;;;6.72;2.08;;;;;;;19.38;100.00;98307.56;4484215;31;20420;-66
2023/07/29 03:50:04;;;;;;;3.05;2.05;;;;;;;19.41;100.00;98301.00;4483907;32;20486;-66
2023/07/29 03:52:32;;;;;;;2.53;1.90;;;;;;;19.53;100.00;98299.38;4484341;31;20145;-66
2023/07/29 03:55:00;;;;;;;2.70;2.00;;;;;;;19.62;100.00;98303.44;4483960;32;20101;-66
2023/07/29 03:57:30;;;;;;;2.37;1.60;;;;;;;19.65;100.00;98294.22;4483984;32;20092;-66
2023/07/29 03:59:58;;;;;;;2.90;1.67;;;;;;;19.71;100.00;98296.06;4483931;32;20108;-66
2023/07/29 04:02:25;;;;;;;2.72;1.80;;;;;;;19.78;100.00;98296.09;4484348;32;20466;-66
2023/07/29 04:04:53;;;;;;;5.53;2.17;;;;;;;19.88;100.00;98296.47;4484098;32;20093;-66
2023/07/29 04:07:21;;;;;;;2.60;1.50;;;;;;;19.97;100.00;98289.91;4484181;31;20092;-66
2023/07/29 04:09:49;;;;;;;2.20;1.60;;;;;;;20.12;100.00;98287.00;4483915;31;20096;-66
2023/07/29 04:12:21;;;;;;;3.53;2.00;;;;;;;20.28;100.00;98291.00;4482832;32;20148;-66
2023/07/29 04:14:49;;;;;;;3.22;1.80;;;;;;;20.42;100.00;98294.41;4483772;31;20093;-66
2023/07/29 04:17:17;;;;;;;2.53;1.62;;;;;;;20.58;100.00;98301.09;4484011;31;20531;-66
2023/07/29 04:19:45;;;;;;;2.45;1.90;;;;;;;20.74;100.00;98303.28;4483837;31;20088;-66
2023/07/29 04:22:12;;;;;;;2.87;1.80;;;;;;;20.86;100.00;98298.09;4485213;32;20141;-66
2023/07/29 04:24:40;;;;;;;2.97;1.77;;;;;;;20.96;99.79;98294.13;4485939;31;20097;-66
2023/07/29 04:27:08;;;;;;;3.40;1.80;;;;;;;21.15;98.30;98297.66;4485872;32;20122;-66
2023/07/29 04:29:36;;;;;;;2.90;1.95;;;;;;;21.27;97.58;98301.25;4485718;31;20139;-66
2023/07/29 04:32:04;;;;;;;2.70;1.80;;;;;;;21.33;96.73;98302.22;4486248;31;20080;-66
2023/07/29 04:34:32;;;;;;;2.30;1.62;;;;;;;21.32;95.77;98300.59;4485940;31;20088;-66
2023/07/29 04:36:59;;;;;;;3.25;1.80;;;;;;;21.33;95.17;98307.56;4485812;32;20150;-66
2023/07/29 04:39:29;;;;;;;2.92;1.70;;;;;;;21.50;95.75;98297.19;4486305;32;20092;-66
2023/07/29 04:41:57;;;;;;;2.10;1.77;;;;;;;21.73;93.41;98297.38;4485804;32;20163;-66
2023/07/29 04:44:25;;;;;;;2.90;1.77;;;;;;;21.92;91.37;98300.03;4485961;32;20123;-66
2023/07/29 04:46:53;;;;;;;2.60;1.90;;;;;;;22.07;90.77;98307.69;4485873;32;20104;-66
2023/07/29 04:49:22;;;;;;;2.62;1.90;;;;;;;22.31;89.81;98305.97;4485543;32;20107;-66
2023/07/29 04:51:51;;;;;;;2.90;1.77;;;;;;;22.43;88.89;98298.03;4485960;32;20176;-66
2023/07/29 04:54:20;;;;;;;4.55;2.00;;;;;;;22.76;88.57;98300.25;4485796;32;20097;-66
2023/07/29 04:56:48;;;;;;;2.70;1.85;;;;;;;22.86;87.01;98295.16;4485923;31;20096;-66
2023/07/29 04:59:17;;;;;;;4.55;2.10;;;;;;;23.10;86.46;98292.56;4485752;32;20084;-66
2023/07/29 05:01:45;;;;;;;3.70;1.87;;;;;;;23.37;82.33;98292.94;4485662;32;20087;-66
2023/07/29 05:04:13;;;;;;;5.07;1.55;;;;;;;23.55;81.86;98297.34;4485761;31;20105;-66
2023/07/29 05:06:41;;;;;;;2.55;1.55;;;;;;;23.86;80.32;98306.09;4485635;32;20841;-66
2023/07/29 05:09:15;;;;;;;3.55;2.00;;;;;;;23.98;78.00;98310.59;4485707;31;20085;-66
2023/07/29 05:11:47;;;;;;;2.35;1.70;;;;;;;23.80;77.87;98315.03;4485685;31;20152;-66
2023/07/29 05:14:16;;;;;;;2.58;1.85;;;;;;;23.78;78.34;98325.13;4486108;31;20092;-66
2023/07/29 05:16:44;;;;;;;3.35;1.90;;;;;;;23.84;77.03;98332.22;4485689;31;20185;-66
2023/07/29 05:19:12;;;;;;;3.72;1.77;;;;;;;23.77;77.06;98336.06;4485644;31;20100;-66
2023/07/29 05:21:40;;;;;;;3.53;1.65;;;;;;;23.87;77.67;98337.13;4485625;32;20484;-66
2023/07/29 05:24:07;;;;;;;3.42;1.70;;;;;;;23.96;77.19;98331.44;4485949;31;20105;-66
2023/07/29 05:26:36;;;;;;;2.22;1.62;;;;;;;24.06;76.26;98327.09;4485400;32;20123;-66
2023/07/29 05:29:04;;;;;;;2.35;1.77;;;;;;;24.14;76.17;98331.28;4485811;31;20138;-66
2023/07/29 05:31:32;;;;;;;3.45;1.85;;;;;;;24.02;77.31;98341.19;4485728;31;20084;-66
2023/07/29 05:34:00;;;;;;;6.07;2.10;;;;;;;23.68;79.05;98351.62;4485346;32;20132;-66
2023/07/29 05:36:29;;;;;;;4.28;1.90;;;;;;;23.37;80.25;98348.25;4485587;31;20123;-66
2023/07/29 05:38:57;;;;;;;4.10;1.95;;;;;;;23.31;81.82;98357.19;4485508;32;20162;-66
2023/07/29 05:41:27;;;;;;;3.92;2.10;;;;;;;23.21;80.91;98355.91;4485702;31;20112;-66
2023/07/29 05:43:55;;;;;;;3.17;2.00;;;;;;;23.03;81.93;98353.28;4485788;31;20118;-66
2023/07/29 05:46:24;;;;;;;5.12;2.03;;;;;;;22.78;83.71;98356.91;4485473;32;20153;-66
2023/07/29 05:48:56;;;;;;;4.10;1.98;;;;;;;22.82;83.90;98357.28;4485204;32;20131;-66
2023/07/29 05:51:24;;;;;;;4.22;1.92;;;;;;;23.02;84.23;98357.00;4485447;31;20107;-66
2023/07/29 05:53:52;;;;;;;4.07;1.83;;;;;;;22.85;84.36;98357.63;4485541;32;20438;-66
2023/07/29 05:56:19;;;;;;;3.00;1.95;;;;;;;22.85;84.94;98360.31;4485729;32;20479;-66
2023/07/29 05:58:47;;;;;;;2.60;1.80;;;;;;;22.77;85.54;98373.97;4485239;32;20088;-66
2023/07/29 06:01:15;;;;;;;4.70;2.20;;;;;;;22.85;85.78;98378.19;4485315;32;20576;-66
2023/07/29 06:03:43;;;;;;;3.12;2.00;;;;;;;22.78;86.94;98378.25;4485362;32;20498;-66
2023/07/29 06:06:13;;;;;;;3.47;2.05;;;;;;;22.84;87.33;98382.69;4485503;32;20152;-66
2023/07/29 06:08:41;;;;;;;3.17;2.08;;;;;;;22.97;86.67;98375.56;4485526;31;20121;-66
2023/07/29 06:11:10;;;;;;;3.25;2.08;;;;;;;22.89;87.25;98373.19;4485347;32;20472;-66
2023/07/29 06:13:38;;;;;;;4.40;2.28;;;;;;;22.80;86.91;98388.72;4485104;32;20100;-66
2023/07/29 06:16:05;;;;;;;3.67;2.10;;;;;;;22.67;88.41;98393.19;4485378;31;20163;-66
2023/07/29 06:18:34;;;;;;;3.70;2.20;;;;;;;22.68;89.61;98388.69;4485482;32;20127;-66
2023/07/29 06:21:01;;;;;;;2.85;1.95;;;;;;;22.89;87.63;98391.91;4485276;32;20582;-66
2023/07/29 06:23:29;;;;;;;2.83;1.92;;;;;;;23.27;86.51;98390.75;4483951;32;20149;-66
2023/07/29 06:25:57;;;;;;;3.10;2.00;;;;;;;23.34;84.96;98392.28;4485137;32;20092;-66
2023/07/29 06:28:24;;;;;;;3.55;2.25;;;;;;;23.54;84.83;98383.97;4485089;32;20088;-66
2023/07/29 06:30:52;;;;;;;4.32;1.95;;;;;;;23.70;84.01;98390.47;4485419;32;20205;-66
2023/07/29 06:33:20;;;;;;;5.35;2.40;;;;;;;23.67;83.21;98400.84;4485053;32;20160;-66
2023/07/29 06:35:49;;;;;;;2.72;2.10;;;;;;;23.74;83.53;98396.22;4485296;32;20156;-66
2023/07/29 06:38:21;;;;;;;2.72;1.85;;;;;;;23.98;82.54;98401.56;4484960;32;20161;-66
2023/07/29 06:40:49;;;;;;;3.55;2.05;;;;;;;24.25;82.84;98408.06;4485115;31;20111;-66
2023/07/29 06:43:17;;;;;;;3.60;2.08;;;;;;;24.11;80.83;98397.84;4485025;32;20147;-66
2023/07/29 06:45:44;;;;;;;2.95;1.77;;;;;;;24.02;81.78;98398.19;4483695;31;20092;-66
2023/07/29 06:48:14;;;;;;;3.08;1.85;;;;;;;24.09;81.42;98398.09;4483349;32;20099;-67
2023/07/29 06:50:41;;;;;;;4.85;2.08;;;;;;;24.36;79.61;98400.25;4485013;32;20129;-66
2023/07/29 06:53:09;;;;;;;3.80;1.92;;;;;;;24.49;77.46;98397.31;4484894;32;20123;-66
2023/07/29 06:55:37;;;;;;;2.60;1.90;;;;;;;24.41;77.75;98386.97;4484980;32;20518;-66
2023/07/29 06:58:04;;;;;;;3.60;2.00;;;;;;;24.69;74.67;98391.56;4484865;31;20092;-66
2023/07/29 07:00:32;;;;;;;3.42;2.33;;;;;;;24.87;73.68;98390.56;4484838;32;20096;-66
2023/07/29 07:03:00;;;;;;;4.47;1.80;;;;;;;25.01;72.20;98395.63;4485056;31;20092;-66
2023/07/29 07:05:29;;;;;;;3.58;1.77;;;;;;;25.10;72.33;98395.03;4484914;31;20114;-66
2023/07/29 07:07:59;;;;;;;2.47;1.62;;;;;;;25.06;71.40;98401.91;4485010;32;20458;-66
2023/07/29 07:10:26;;;;;;;2.20;1.67;;;;;;;25.38;72.88;98397.94;4484777;32;20556;-66
2023/07/29 07:12:55;;;;;;;3.17;1.60;;;;;;;25.72;68.24;98401.41;4484664;31;20104;-66
2023/07/29 07:15:23;;;;;;;2.60;1.85;;;;;;;25.79;65.68;98401.25;4484664;31;20092;-66
2023/07/29 07:17:51;;;;;;;4.22;1.52;;;;;;;25.85;65.77;98400.28;4484640;31;20131;-66
2023/07/29 07:20:19;;;;;;;2.70;2.10;;;;;;;25.81;66.98;98396.44;4484640;31;20129;-66
2023/07/29 07:22:47;;;;;;;2.65;1.85;;;;;;;25.61;67.34;98397.75;4484787;32;20494;-66
2023/07/29 07:25:15;;;;;;;3.40;1.95;;;;;;;25.81;66.09;98391.88;4484638;31;20093;-66
2023/07/29 07:27:42;;;;;;;3.90;1.75;;;;;;;25.88;66.76;98396.28;4484389;31;20106;-66
2023/07/29 07:30:11;;;;;;;2.65;1.87;;;;;;;25.87;67.10;98390.09;4484391;32;20180;-66
2023/07/29 07:32:39;;;;;;;4.40;2.00;;;;;;;25.86;67.45;98393.84;4484488;31;20510;-66
2023/07/29 07:35:07;;;;;;;2.67;1.45;;;;;;;25.98;65.86;98394.59;4484569;31;20100;-66
2023/07/29 07:37:38;;;;;;;2.30;1.70;;;;;;;26.11;64.90;98392.63;4484488;31;20368;-66
2023/07/29 07:40:06;;;;;;;2.85;1.75;;;;;;;26.20;64.79;98393.81;4484165;32;20089;-66
2023/07/29 07:42:35;;;;;;;2.30;1.77;;;;;;;26.24;65.74;98396.78;4484352;31;20603;-66
2023/07/29 07:45:04;;;;;;;3.42;1.92;;;;;;;25.90;66.92;98388.81;4484258;32;20097;-66
2023/07/29 07:47:32;;;;;;;2.92;2.08;;;;;;;26.00;67.83;98394.34;4484175;32;20149;-66
2023/07/29 07:50:00;;;;;;;2.87;2.33;;;;;;;25.99;68.25;98393.50;4484010;32;20562;-66
2023/07/29 07:52:28;;;;;;;5.00;1.87;;;;;;;26.06;67.84;98379.94;4483937;31;20101;-66
2023/07/29 07:54:56;;;;;;;3.15;1.98;;;;;;;26.13;67.72;98383.25;4484237;31;20104;-66
2023/07/29 07:57:24;;;;;;;2.45;1.98;;;;;;;26.22;67.40;98389.00;4485777;32;20137;-66
2023/07/29 07:59:52;;;;;;;2.17;1.75;;;;;;;26.34;65.48;98388.88;4486282;32;20092;-66
2023/07/29 08:02:20;;;;;;;3.50;1.62;;;;;;;26.34;64.20;98384.34;4486280;31;20104;-66
2023/07/29 08:04:48;;;;;;;2.20;1.55;;;;;;;26.33;64.40;98382.69;4486107;32;20100;-66
2023/07/29 08:07:16;;;;;;;2.85;1.80;;;;;;;26.35;64.19;98380.56;4486184;32;20115;-66
2023/07/29 08:09:44;;;;;;;2.47;1.60;;;;;;;26.30;65.09;98377.84;4485920;32;20145;-66
2023/07/29 08:12:12;;;;;;;2.47;1.67;;;;;;;26.30;64.42;98372.47;4486300;32;20150;-66
2023/07/29 08:14:40;;;;;;;2.53;1.70;;;;;;;26.42;64.53;98379.56;4486132;32;20589;-66
2023/07/29 08:17:08;;;;;;;2.83;1.77;;;;;;;26.34;66.24;98372.75;4486063;31;20163;-66
2023/07/29 08:19:37;;;;;;;3.25;2.08;;;;;;;26.56;65.41;98370.87;4486163;32;20454;-66
2023/07/29 08:22:05;;;;;;;3.40;2.50;;;;;;;26.61;64.90;98378.19;4486058;31;20161;-66
2023/07/29 08:24:33;;;;;;;2.70;1.83;;;;;;;26.51;66.28;98376.22;4486112;31;20122;-66
2023/07/29 08:27:02;;;;;;;2.83;2.10;;;;;;;26.80;63.25;98375.19;4486178;31;20108;-66
2023/07/29 08:29:30;;;;;;;3.55;2.25;;;;;;;26.86;62.71;98366.94;4485797;32;20145;-66
2023/07/29 08:31:57;;;;;;;2.10;1.45;;;;;;;26.89;62.75;98379.06;4486066;32;20092;-66
2023/07/29 08:34:27;;;;;;;4.00;1.60;;;;;;;26.97;59.54;98373.22;4485958;32;20111;-66
2023/07/29 08:36:54;;;;;;;1.62;1.37;;;;;;;27.09;59.87;98373.88;4485967;32;20115;-66
2023/07/29 08:39:23;;;;;;;2.35;1.40;;;;;;;27.19;59.26;98375.03;4485910;32;20144;-66
2023/07/29 08:42:11;;;;;;;1.80;1.17;;;;;;;27.39;58.88;98374.41;4485977;32;20081;-66
2023/07/29 08:44:42;;;;;;;2.55;1.50;;;;;;;27.26;56.01;98373.75;4485900;32;20100;-66
2023/07/29 08:47:13;;;;;;;1.60;1.20;;;;;;;27.16;55.08;98367.47;4486098;31;20088;-66
2023/07/29 08:49:41;;;;;;;1.50;1.27;;;;;;;27.20;56.32;98364.00;4485648;31;20076;-66
2023/07/29 08:52:09;;;;;;;1.60;1.40;;;;;;;27.42;55.54;98361.28;4476116;32;20163;-66
2023/07/29 08:54:37;;;;;;;1.73;1.30;;;;;;;27.51;55.34;98360.78;4468894;32;20105;-66
2023/07/29 08:57:06;;;;;;;2.50;1.37;;;;;;;27.50;53.95;98359.19;4468961;32;20382;-66
2023/07/29 08:59:34;;;;;;;2.10;1.65;;;;;;;27.51;53.22;98358.94;4468715;32;20076;-66
2023/07/29 09:02:02;;;;;;;1.95;1.25;;;;;;;27.21;54.73;98364.84;4470286;32;20513;-66
2023/07/29 09:04:30;;;;;;;1.85;1.30;;;;;;;27.47;53.99;98357.03;4470141;32;20119;-66
2023/07/29 09:06:59;;;;;;;1.50;1.37;;;;;;;27.67;54.79;98351.75;4470239;32;20084;-66
2023/07/29 09:09:28;;;;;;;3.10;1.48;;;;;;;27.59;55.51;98354.94;4469173;32;20100;-66
2023/07/29 09:11:56;;;;;;;1.98;1.60;;;;;;;27.77;54.38;98353.72;4470363;32;20663;-66
2023/07/29 09:14:26;;;;;;;1.77;1.30;;;;;;;27.98;55.11;98357.38;4477871;32;20780;-66
2023/07/29 09:16:56;;;;;;;3.15;1.50;;;;;;;28.09;55.57;98350.94;4485960;31;20156;-66
2023/07/29 09:19:27;;;;;;;2.85;1.42;;;;;;;28.49;56.28;98352.22;4484469;32;20092;-66
2023/07/29 09:21:55;;;;;;;1.65;1.25;;;;;;;28.04;53.63;98350.13;4485614;31;20096;-66
2023/07/29 09:24:22;;;;;;;2.05;1.50;;;;;;;28.12;53.42;98344.25;4485557;31;20147;-67
2023/07/29 09:26:50;;;;;;;2.37;1.45;;;;;;;28.30;53.03;98342.97;4484262;32;20085;-66
2023/07/29 09:29:22;;;;;;;2.08;1.25;;;;;;;28.22;51.39;98341.59;4485464;31;20096;-66
2023/07/29 09:31:50;;;;;;;1.87;1.35;;;;;;;28.31;50.18;98344.56;4485577;31;20431;-67
2023/07/29 09:34:18;;;;;;;2.42;1.40;;;;;;;28.41;50.42;98339.22;4485567;31;20108;-66
2023/07/29 09:36:46;;;;;;;1.62;1.45;;;;;;;28.56;50.05;98343.06;4485442;32;20113;-67
2023/07/29 09:39:13;;;;;;;2.60;1.55;;;;;;;28.30;49.92;98334.91;4485564;32;20506;-67
2023/07/29 09:41:49;;;;;;;1.95;1.45;;;;;;;28.69;49.80;98339.87;4485495;32;20118;-66
2023/07/29 09:44:17;;;;;;;1.90;1.40;;;;;;;28.36;51.53;98331.16;4485631;31;20127;-66
2023/07/29 09:46:46;;;;;;;2.03;1.58;;;;;;;28.47;50.27;98327.38;4485483;31;20096;-66
2023/07/29 09:49:13;;;;;;;1.95;1.12;;;;;;;28.04;51.49;98329.41;4485196;31;20442;-66
2023/07/29 09:51:41;;;;;;;1.40;1.30;;;;;;;28.36;52.58;98330.31;4485091;31;20104;-66
2023/07/29 09:54:12;;;;;;;2.30;1.35;;;;;;;28.60;50.09;98333.38;4485475;32;20446;-67
2023/07/29 09:56:45;;;;;;;2.50;1.75;;;;;;;28.68;49.53;98333.69;4485402;31;20089;-66
2023/07/29 09:59:13;;;;;;;1.42;1.30;;;;;;;28.46;49.87;98324.97;4485713;31;20145;-66
2023/07/29 10:01:41;;;;;;;2.03;1.30;;;;;;;28.96;50.50;98322.66;4485583;32;20108;-66
2023/07/29 10:04:09;;;;;;;1.52;1.30;;;;;;;29.19;48.39;98316.75;4485371;32;20096;-66
2023/07/29 10:06:41;;;;;;;1.15;1.00;;;;;;;29.01;48.82;98330.78;4485379;31;20665;-66
2023/07/29 10:09:11;;;;;;;1.50;1.20;;;;;;;29.22;48.65;98320.00;4485240;31;20113;-66
2023/07/29 10:11:39;;;;;;;1.75;1.27;;;;;;;29.11;48.21;98327.25;4485266;31;20096;-66
2023/07/29 10:14:09;;;;;;;1.27;1.10;;;;;;;29.10;48.21;98317.53;4484087;32;20117;-66
2023/07/29 10:16:37;;;;;;;1.40;1.10;;;;;;;29.40;47.55;98316.75;4483812;32;20104;-67
2023/07/29 10:19:07;;;;;;;1.30;1.10;;;;;;;29.68;45.10;98322.66;4483841;32;20089;-66
2023/07/29 10:21:38;;;;;;;1.42;1.10;;;;;;;29.94;43.98;98319.91;4485199;31;20126;-66
2023/07/29 10:24:16;;;;;;;2.03;1.30;;;;;;;30.71;43.58;98316.87;4485274;31;20414;-66
2023/07/29 10:26:46;;;;;;;2.12;1.37;;;;;;;30.62;42.82;98316.66;4485144;31;20506;-67
2023/07/29 10:29:19;;;;;;;3.35;1.20;;;;;;;30.74;42.12;98319.81;4485312;31;20098;-67
2023/07/29 10:31:47;;;;;;;7.53;1.50;;;;;;;31.31;41.72;98314.81;4485103;31;20085;-67
2023/07/29 10:34:14;;;;;;;1.55;1.17;;;;;;;31.54;40.22;98317.00;4483999;32;20104;-67
2023/07/29 10:36:42;;;;;;;1.45;1.20;;;;;;;31.21;39.96;98323.00;4483976;32;20234;-66
2023/07/29 10:39:10;;;;;;;1.65;1.30;;;;;;;31.08;40.08;98323.66;4485080;31;20089;-67
2023/07/29 10:41:56;;;;;;;1.55;1.20;;;;;;;31.17;41.20;98323.84;4485263;31;20194;-67
2023/07/29 10:44:39;;;;;;;2.58;1.27;;;;;;;31.29;40.93;98316.97;4485145;31;20100;-67
2023/07/29 10:47:18;;;;;;;2.12;1.87;;;;;;;31.09;40.61;98317.97;4485163;31;20149;-67
2023/07/29 10:49:56;;;;;;;1.33;1.02;;;;;;;30.95;41.60;98316.97;4484902;31;20102;-67
2023/07/29 10:52:34;;;;;;;2.35;1.40;;;;;;;30.94;41.99;98318.06;4485073;32;20104;-67
2023/07/29 10:55:02;;;;;;;1.92;1.40;;;;;;;30.59;42.86;98319.91;4485060;31;20088;-67
2023/07/29 10:57:35;;;;;;;2.12;1.48;;;;;;;30.54;42.33;98307.22;4484862;31;20096;-67
2023/07/29 11:00:04;;;;;;;1.75;1.17;;;;;;;30.86;42.23;98302.44;4484908;31;20080;-67
2023/07/29 11:02:40;;;;;;;1.30;1.20;;;;;;;31.03;42.45;98312.88;4484758;31;20508;-67
2023/07/29 11:05:16;;;;;;;2.85;1.30;;;;;;;30.89;42.29;98305.38;4484858;32;20176;-67
2023/07/29 11:07:45;;;;;;;2.50;1.10;;;;;;;30.81;41.93;98299.75;4484979;31;20677;-66
2023/07/29 11:10:13;;;;;;;1.90;1.40;;;;;;;30.48;42.73;98302.94;4484631;31;20080;-67
2023/07/29 11:12:45;;;;;;;1.70;1.40;;;;;;;30.69;41.83;98310.91;4484712;31;20096;-66
2023/07/29 11:15:27;;;;;;;1.77;1.20;;;;;;;30.97;43.28;98315.56;4484932;31;20104;-67
2023/07/29 11:17:55;;;;;;;1.70;1.20;;;;;;;31.36;41.78;98313.94;4485012;31;20528;-66
2023/07/29 11:20:30;;;;;;;1.85;1.50;;;;;;;31.54;40.44;98307.00;4484558;32;20487;-67
2023/07/29 11:22:59;;;;;;;1.40;1.23;;;;;;;31.08;40.78;98318.25;4484737;31;20546;-67
2023/07/29 11:25:30;;;;;;;1.85;1.20;;;;;;;30.64;42.00;98310.97;4484651;31;20092;-67
2023/07/29 11:27:58;;;;;;;1.73;1.33;;;;;;;31.05;43.03;98311.47;4484581;31;20450;-67
2023/07/29 11:30:27;;;;;;;2.00;1.30;;;;;;;31.33;40.73;98314.50;4484708;31;20159;-67
2023/07/29 11:32:58;;;;;;;2.73;1.07;;;;;;;31.51;39.26;98302.16;4486191;31;20535;-67
2023/07/29 11:35:26;;;;;;;1.87;1.35;;;;;;;31.78;38.86;98311.66;4486558;31;20172;-67
2023/07/29 11:37:56;;;;;;;1.85;1.20;;;;;;;31.85;38.16;98306.69;4486221;32;20105;-67